createdAt,value
2022-10-20T00:01:26.224Z,13.50
2022-10-20T00:03:54.679Z,13.40
2022-10-20T00:06:24.659Z,13.50
2022-10-20T00:09:01.201Z,13.50
2022-10-20T00:11:32.845Z,13.40
2022-10-20T00:14:02.325Z,13.50
2022-10-20T00:16:32.983Z,13.50
2022-10-20T00:19:03.892Z,13.50
2022-10-20T00:21:31.885Z,13.40
2022-10-20T00:24:01.402Z,13.40
2022-10-20T00:26:32.337Z,13.40
2022-10-20T00:29:02.506Z,13.30
2022-10-20T00:31:29.706Z,13.30
2022-10-20T00:33:59.786Z,13.30
2022-10-20T00:36:26.767Z,13.30
2022-10-20T00:38:58.787Z,13.30
2022-10-20T00:41:29.716Z,13.30
2022-10-20T00:44:01.061Z,13.30
2022-10-20T00:46:33.741Z,13.20
2022-10-20T00:49:07.108Z,13.30
2022-10-20T00:51:34.767Z,13.30
2022-10-20T00:54:08.565Z,13.30
2022-10-20T00:56:44.435Z,13.20
2022-10-20T00:59:19.032Z,13.10
2022-10-20T01:01:51.625Z,13.10
2022-10-20T01:04:19.188Z,13.20
2022-10-20T01:06:55.309Z,13.20
2022-10-20T01:09:22.434Z,13.20
2022-10-20T01:12:05.426Z,13.10
2022-10-20T01:14:44.847Z,13.10
2022-10-20T01:17:23.969Z,13.20
2022-10-20T01:20:39.683Z,13.10
2022-10-20T01:23:46.517Z,13.10
2022-10-20T01:30:02.167Z,13.10
2022-10-20T01:32:59.602Z,13.00
2022-10-20T01:35:43.732Z,13.00
2022-10-20T01:41:14.404Z,13.10
2022-10-20T01:43:45.730Z,13.00
2022-10-20T01:46:15.928Z,13.00
2022-10-20T01:48:50.361Z,13.00
2022-10-20T01:51:23.513Z,13.00
2022-10-20T01:53:56.563Z,13.00
2022-10-20T01:56:38.359Z,12.90
2022-10-20T01:59:33.035Z,12.90
2022-10-20T02:02:47.054Z,12.90
2022-10-20T02:05:30.000Z,12.90
2022-10-20T02:08:13.670Z,12.90
2022-10-20T02:10:46.669Z,12.90
2022-10-20T02:13:17.899Z,12.90
2022-10-20T02:15:51.604Z,12.80
2022-10-20T02:18:24.867Z,12.80
2022-10-20T02:20:54.794Z,12.80
2022-10-20T02:23:35.011Z,12.80
2022-10-20T02:26:08.129Z,12.80
2022-10-20T02:28:37.851Z,12.80
2022-10-20T02:31:06.623Z,12.80
2022-10-20T02:33:35.268Z,12.80
2022-10-20T02:36:06.163Z,12.80
2022-10-20T02:38:33.234Z,12.80
2022-10-20T02:41:00.250Z,12.90
2022-10-20T02:43:27.119Z,12.90
2022-10-20T02:45:56.903Z,12.80
2022-10-20T02:48:25.184Z,12.80
2022-10-20T02:50:52.490Z,12.80
2022-10-20T02:53:19.377Z,12.80
2022-10-20T02:55:46.476Z,12.70
2022-10-20T02:58:13.420Z,12.70
2022-10-20T03:00:40.550Z,12.80
2022-10-20T03:03:07.422Z,12.70
2022-10-20T03:05:40.461Z,12.70
2022-10-20T03:08:07.422Z,12.70
2022-10-20T03:10:35.401Z,12.60
2022-10-20T03:13:02.315Z,12.70
2022-10-20T03:15:29.487Z,12.70
2022-10-20T03:18:06.218Z,12.70
2022-10-20T03:20:35.189Z,12.60
2022-10-20T03:23:02.070Z,12.60
2022-10-20T03:25:30.921Z,12.50
2022-10-20T03:27:58.335Z,12.60
2022-10-20T03:30:25.465Z,12.70
2022-10-20T03:32:52.433Z,12.60
2022-10-20T03:35:19.534Z,12.60
2022-10-20T03:37:47.836Z,12.70
2022-10-20T03:40:14.994Z,12.60
2022-10-20T03:42:46.504Z,12.50
2022-10-20T03:45:16.276Z,12.50
2022-10-20T03:47:45.549Z,12.50
2022-10-20T03:50:14.910Z,12.50
2022-10-20T03:52:41.858Z,12.40
2022-10-20T03:55:10.447Z,12.40
2022-10-20T03:57:37.858Z,12.40
2022-10-20T04:00:09.106Z,12.50
2022-10-20T04:02:46.321Z,12.50
2022-10-20T04:05:16.335Z,12.40
2022-10-20T04:07:49.597Z,12.50
2022-10-20T04:10:18.399Z,12.50
2022-10-20T04:12:45.311Z,12.50
2022-10-20T04:15:12.474Z,12.50
2022-10-20T04:20:11.901Z,12.50
2022-10-20T04:22:39.213Z,12.60
2022-10-20T04:25:07.458Z,12.60
2022-10-20T04:27:36.414Z,12.60
2022-10-20T04:30:04.437Z,12.50
2022-10-20T04:32:31.386Z,12.50
2022-10-20T04:34:58.505Z,12.60
2022-10-20T04:37:25.548Z,12.50
2022-10-20T04:39:54.637Z,12.60
2022-10-20T04:42:21.570Z,12.50
2022-10-20T04:44:52.833Z,12.50
2022-10-20T04:47:19.779Z,12.50
2022-10-20T04:49:46.676Z,12.50
2022-10-20T04:52:17.408Z,12.50
2022-10-20T04:54:44.397Z,12.50
2022-10-20T04:57:11.326Z,12.50
2022-10-20T04:59:38.271Z,12.50
2022-10-20T05:02:06.621Z,12.50
2022-10-20T05:04:33.675Z,12.50
2022-10-20T05:07:00.583Z,12.50
2022-10-20T05:09:27.982Z,12.40
2022-10-20T05:11:54.887Z,12.50
2022-10-20T05:14:22.224Z,12.50
2022-10-20T05:19:31.496Z,12.60
2022-10-20T05:21:58.401Z,12.50
2022-10-20T05:24:29.135Z,12.50
2022-10-20T05:26:56.947Z,12.40
2022-10-20T05:29:23.885Z,12.40
2022-10-20T05:31:50.938Z,12.40
2022-10-20T05:34:20.783Z,12.50
2022-10-20T05:36:49.055Z,12.50
2022-10-20T05:39:18.935Z,12.50
2022-10-20T05:41:45.857Z,12.50
2022-10-20T05:44:15.309Z,12.50
2022-10-20T05:46:43.739Z,12.40
2022-10-20T05:49:15.248Z,12.40
2022-10-20T05:51:42.742Z,12.50
2022-10-20T05:54:20.179Z,12.40
2022-10-20T05:56:56.311Z,12.50
2022-10-20T05:59:26.422Z,12.50
2022-10-20T06:01:56.454Z,12.50
2022-10-20T06:04:33.217Z,12.40
2022-10-20T06:07:00.129Z,12.40
2022-10-20T06:09:28.628Z,12.40
2022-10-20T06:11:55.545Z,12.50
2022-10-20T06:14:22.757Z,12.40
2022-10-20T06:16:51.823Z,12.40
2022-10-20T06:19:26.565Z,12.40
2022-10-20T06:21:54.239Z,12.40
2022-10-20T06:24:21.599Z,12.40
2022-10-20T06:26:50.002Z,12.40
2022-10-20T06:29:18.892Z,12.40
2022-10-20T06:31:51.416Z,12.40
2022-10-20T06:34:21.778Z,12.50
2022-10-20T06:36:52.739Z,12.50
2022-10-20T06:39:22.289Z,12.40
2022-10-20T06:41:54.814Z,12.30
2022-10-20T06:44:24.069Z,12.40
2022-10-20T06:46:55.148Z,12.40
2022-10-20T06:49:24.752Z,12.40
2022-10-20T06:51:56.365Z,12.40
2022-10-20T06:54:29.796Z,12.40
2022-10-20T06:57:04.580Z,12.40
2022-10-20T06:59:31.679Z,12.40
2022-10-20T07:01:58.674Z,12.40
2022-10-20T07:04:25.726Z,12.50
2022-10-20T07:06:55.818Z,12.50
2022-10-20T07:09:24.436Z,12.50
2022-10-20T07:11:51.972Z,12.50
2022-10-20T07:14:20.816Z,12.50
2022-10-20T07:16:47.754Z,12.50
2022-10-20T07:19:14.710Z,12.50
2022-10-20T07:21:45.533Z,12.60
2022-10-20T07:24:16.719Z,12.60
2022-10-20T07:26:43.827Z,12.70
2022-10-20T07:29:12.629Z,12.60
2022-10-20T07:31:43.510Z,12.60
2022-10-20T07:34:30.166Z,12.60
2022-10-20T07:37:03.208Z,12.70
2022-10-20T07:39:30.096Z,12.70
2022-10-20T07:41:57.159Z,12.60
2022-10-20T07:44:27.233Z,12.60
2022-10-20T07:46:55.655Z,12.70
2022-10-20T07:49:43.573Z,12.70
2022-10-20T07:52:09.693Z,12.80
2022-10-20T07:54:39.677Z,12.80
2022-10-20T07:57:06.815Z,12.80
2022-10-20T07:59:42.890Z,12.80
2022-10-20T08:02:13.532Z,12.90
2022-10-20T08:04:41.704Z,13.00
2022-10-20T08:07:11.954Z,12.90
2022-10-20T08:09:42.473Z,12.90
2022-10-20T08:12:09.572Z,12.90
2022-10-20T08:14:37.800Z,13.00
2022-10-20T08:17:05.585Z,13.00
2022-10-20T08:20:13.919Z,13.10
2022-10-20T08:22:28.939Z,13.10
2022-10-20T08:24:56.035Z,13.00
2022-10-20T08:27:23.319Z,13.10
2022-10-20T08:30:06.180Z,13.00
2022-10-20T08:32:50.563Z,13.10
2022-10-20T08:35:25.230Z,13.00
2022-10-20T08:37:55.284Z,13.10
2022-10-20T08:40:27.439Z,13.10
2022-10-20T08:43:00.133Z,13.10
2022-10-20T08:45:29.223Z,13.20
2022-10-20T08:47:59.700Z,13.20
2022-10-20T08:50:32.023Z,13.30
2022-10-20T08:53:00.991Z,13.30
2022-10-20T08:55:33.405Z,13.40
2022-10-20T08:58:04.126Z,13.50
2022-10-20T09:03:19.087Z,13.70
2022-10-20T09:05:54.826Z,13.50
2022-10-20T09:08:28.639Z,13.50
2022-10-20T09:10:56.323Z,13.50
2022-10-20T09:13:32.823Z,13.50
2022-10-20T09:16:05.353Z,13.60
2022-10-20T09:18:33.156Z,13.60
2022-10-20T09:21:05.146Z,13.70
2022-10-20T09:23:45.961Z,13.60
2022-10-20T09:26:25.150Z,13.60
2022-10-20T09:29:14.490Z,13.70
2022-10-20T09:31:44.576Z,13.60
2022-10-20T09:34:27.391Z,13.50
2022-10-20T09:37:09.191Z,13.60
2022-10-20T09:39:58.313Z,13.60
2022-10-20T09:42:49.758Z,13.60
2022-10-20T09:45:22.036Z,13.50
2022-10-20T09:47:52.757Z,13.50
2022-10-20T09:50:27.166Z,13.50
2022-10-20T09:52:56.381Z,13.50
2022-10-20T09:55:29.469Z,13.50
2022-10-20T09:58:02.381Z,13.50
2022-10-20T10:00:38.394Z,13.50
2022-10-20T10:03:21.378Z,13.50
2022-10-20T10:05:51.581Z,13.60
2022-10-20T10:08:21.870Z,13.60
2022-10-20T10:11:04.203Z,13.70
2022-10-20T10:13:44.096Z,13.70
2022-10-20T10:16:15.355Z,13.70
2022-10-20T10:18:48.473Z,13.80
2022-10-20T10:21:20.250Z,13.80
2022-10-20T10:23:55.008Z,13.70
2022-10-20T10:26:53.014Z,13.70
2022-10-20T10:29:26.191Z,13.70
2022-10-20T10:31:59.528Z,13.60
2022-10-20T10:34:45.469Z,13.60
2022-10-20T10:37:17.251Z,13.60
2022-10-20T10:39:45.886Z,13.70
2022-10-20T10:42:48.769Z,13.70
2022-10-20T10:45:27.245Z,13.70
2022-10-20T10:48:42.187Z,13.80
2022-10-20T10:51:18.663Z,13.80
2022-10-20T10:54:00.641Z,13.80
2022-10-20T10:56:37.384Z,13.90
2022-10-20T10:59:28.876Z,14.00
2022-10-20T11:02:38.143Z,14.00
2022-10-20T11:05:58.905Z,14.00
2022-10-20T11:08:48.543Z,14.10
2022-10-20T11:11:31.735Z,14.00
2022-10-20T11:14:14.673Z,14.00
2022-10-20T11:16:54.154Z,14.10
2022-10-20T11:20:12.505Z,14.10
2022-10-20T11:22:53.094Z,14.20
2022-10-20T11:25:31.756Z,14.20
2022-10-20T11:28:19.757Z,14.20
2022-10-20T11:30:46.787Z,14.20
2022-10-20T11:33:41.468Z,14.10
2022-10-20T11:36:16.005Z,14.10
2022-10-20T11:38:53.461Z,14.20
2022-10-20T11:41:27.951Z,14.20
2022-10-20T11:44:01.981Z,14.20
2022-10-20T11:46:37.420Z,14.20
2022-10-20T11:49:04.971Z,14.20
2022-10-20T11:52:13.000Z,14.20
2022-10-20T11:55:07.186Z,14.20
2022-10-20T11:57:51.667Z,14.20
2022-10-20T12:00:54.069Z,14.20
2022-10-20T12:03:49.552Z,14.10
2022-10-20T12:07:07.409Z,14.10
2022-10-20T12:10:03.827Z,14.10
2022-10-20T12:12:37.311Z,14.10
2022-10-20T12:15:24.643Z,14.20
2022-10-20T12:17:52.672Z,14.20
2022-10-20T12:20:50.999Z,14.20
2022-10-20T12:24:03.451Z,14.20
2022-10-20T12:27:18.230Z,14.20
2022-10-20T12:30:04.523Z,14.20
2022-10-20T12:33:17.665Z,14.20
2022-10-20T12:36:27.412Z,14.20
2022-10-20T12:39:09.794Z,14.30
2022-10-20T12:42:01.861Z,14.30
2022-10-20T12:44:34.308Z,14.30
2022-10-20T12:47:06.461Z,14.20
2022-10-20T12:49:40.705Z,14.30
2022-10-20T12:52:21.273Z,14.30
2022-10-20T12:55:06.072Z,14.30
2022-10-20T12:57:41.592Z,14.30
2022-10-20T13:01:02.819Z,14.30
2022-10-20T13:03:52.674Z,14.40
2022-10-20T13:06:45.511Z,14.40
2022-10-20T13:09:22.283Z,14.30
2022-10-20T13:12:04.330Z,14.30
2022-10-20T13:15:03.471Z,14.40
2022-10-20T13:17:52.732Z,14.30
2022-10-20T13:20:42.854Z,14.30
2022-10-20T13:23:27.608Z,14.20
2022-10-20T13:25:57.237Z,14.20
2022-10-20T13:28:27.916Z,14.30
2022-10-20T13:31:15.320Z,14.20
2022-10-20T13:34:08.662Z,14.30
2022-10-20T13:37:02.274Z,14.30
2022-10-20T13:39:43.795Z,14.40
2022-10-20T13:42:34.435Z,14.30
2022-10-20T13:45:16.262Z,14.30
2022-10-20T13:47:56.714Z,14.20
2022-10-20T13:50:31.997Z,14.30
2022-10-20T13:53:03.650Z,14.20
2022-10-20T13:56:02.729Z,14.30
2022-10-20T13:58:33.884Z,14.30
2022-10-20T14:01:07.017Z,14.30
2022-10-20T14:03:42.663Z,14.30
2022-10-20T14:06:32.613Z,14.30
2022-10-20T14:09:15.215Z,14.30
2022-10-20T14:11:45.002Z,14.30
2022-10-20T14:14:19.070Z,14.30
2022-10-20T14:16:55.836Z,14.30
2022-10-20T14:19:27.841Z,14.30
2022-10-20T14:21:56.684Z,14.20
2022-10-20T14:24:31.346Z,14.30
2022-10-20T14:27:14.271Z,14.30
2022-10-20T14:29:41.449Z,14.30
2022-10-20T14:32:17.480Z,14.30
2022-10-20T14:34:58.064Z,14.20
2022-10-20T14:37:33.628Z,14.20
2022-10-20T14:40:07.168Z,14.20
2022-10-20T14:42:36.177Z,14.30
2022-10-20T14:45:05.788Z,14.20
2022-10-20T14:47:40.874Z,14.10
2022-10-20T14:50:33.390Z,14.10
2022-10-20T14:53:36.173Z,14.30
2022-10-20T14:56:22.903Z,14.20
2022-10-20T14:59:02.442Z,14.30
2022-10-20T15:01:35.160Z,14.20
2022-10-20T15:04:12.743Z,14.20
2022-10-20T15:06:45.838Z,14.20
2022-10-20T15:09:32.667Z,14.20
2022-10-20T15:12:07.385Z,14.20
2022-10-20T15:14:38.834Z,14.20
2022-10-20T15:17:37.622Z,14.20
2022-10-20T15:20:45.186Z,14.30
2022-10-20T15:23:21.138Z,14.20
2022-10-20T15:25:53.875Z,14.20
2022-10-20T15:28:35.214Z,14.20
2022-10-20T15:31:16.796Z,14.20
2022-10-20T15:33:47.093Z,14.20
2022-10-20T15:36:31.371Z,14.10
2022-10-20T15:38:59.300Z,14.20
2022-10-20T15:41:28.330Z,14.20
2022-10-20T15:43:55.538Z,14.20
2022-10-20T15:46:30.071Z,14.10
2022-10-20T15:48:57.121Z,14.10
2022-10-20T15:51:27.376Z,14.20
2022-10-20T15:53:57.906Z,14.20
2022-10-20T15:56:30.470Z,14.30
2022-10-20T15:59:00.290Z,14.30
2022-10-20T16:01:28.695Z,14.20
2022-10-20T16:04:03.311Z,14.20
2022-10-20T16:06:30.220Z,14.20
2022-10-20T16:08:59.793Z,14.20
2022-10-20T16:11:26.786Z,14.20
2022-10-20T16:13:53.708Z,14.20
2022-10-20T16:16:20.874Z,14.10
2022-10-20T16:18:49.150Z,14.20
2022-10-20T16:21:16.077Z,14.20
2022-10-20T16:23:44.911Z,14.20
2022-10-20T16:26:15.401Z,14.20
2022-10-20T16:28:45.346Z,14.20
2022-10-20T16:31:16.644Z,14.20
2022-10-20T16:33:51.213Z,14.10
2022-10-20T16:36:30.235Z,13.90
2022-10-20T16:38:57.668Z,13.80
2022-10-20T16:41:31.830Z,13.90
2022-10-20T16:44:01.796Z,14.00
2022-10-20T16:46:31.381Z,13.90
2022-10-20T16:48:59.681Z,13.90
2022-10-20T16:51:26.627Z,13.80
2022-10-20T16:56:45.140Z,13.80
2022-10-20T16:59:12.339Z,13.80
2022-10-20T17:01:42.064Z,13.80
2022-10-20T17:04:13.519Z,13.80
2022-10-20T17:06:46.504Z,13.70
2022-10-20T17:09:20.932Z,13.70
2022-10-20T17:11:47.854Z,13.60
2022-10-20T17:14:21.030Z,13.60
2022-10-20T17:16:50.834Z,13.60
2022-10-20T17:19:21.855Z,13.50
2022-10-20T17:21:55.955Z,13.50
2022-10-20T17:24:24.559Z,13.60
2022-10-20T17:26:51.563Z,13.60
2022-10-20T17:29:22.330Z,13.70
2022-10-20T17:32:04.577Z,13.80
2022-10-20T17:34:35.413Z,13.80
2022-10-20T17:37:02.462Z,13.90
2022-10-20T17:39:34.523Z,13.90
2022-10-20T17:42:01.503Z,13.90
2022-10-20T17:44:28.423Z,13.90
2022-10-20T17:46:59.097Z,13.90
2022-10-20T17:49:29.292Z,13.80
2022-10-20T17:51:57.601Z,13.90
2022-10-20T17:54:24.857Z,14.00
2022-10-20T17:56:52.447Z,14.00
2022-10-20T17:59:19.456Z,14.00
2022-10-20T18:01:52.039Z,14.10
2022-10-20T18:04:19.131Z,14.00
2022-10-20T18:06:49.270Z,14.00
2022-10-20T18:09:18.689Z,14.00
2022-10-20T18:11:48.285Z,14.00
2022-10-20T18:14:17.145Z,14.00
2022-10-20T18:16:47.795Z,14.00
2022-10-20T18:19:17.492Z,14.00
2022-10-20T18:21:56.462Z,14.00
2022-10-20T18:24:28.007Z,13.90
2022-10-20T18:26:58.197Z,13.90
2022-10-20T18:29:28.357Z,13.90
2022-10-20T18:31:56.090Z,13.80
2022-10-20T18:34:23.143Z,13.80
2022-10-20T18:36:51.907Z,13.80
2022-10-20T18:39:19.875Z,13.90
2022-10-20T18:41:51.861Z,13.90
2022-10-20T18:44:19.712Z,13.90
2022-10-20T18:46:47.552Z,13.80
2022-10-20T18:49:21.653Z,13.90
2022-10-20T18:51:48.633Z,13.90
2022-10-20T18:54:17.117Z,13.90
2022-10-20T18:56:44.071Z,13.90
2022-10-20T18:59:16.121Z,14.00
2022-10-20T19:01:43.723Z,14.10
2022-10-20T19:04:12.752Z,14.00
2022-10-20T19:06:41.803Z,14.00
2022-10-20T19:09:11.296Z,14.00
2022-10-20T19:11:39.844Z,13.90
2022-10-20T19:14:14.495Z,13.90
2022-10-20T19:16:45.984Z,13.90
2022-10-20T19:19:25.094Z,13.90
2022-10-20T19:21:52.071Z,13.90
2022-10-20T19:24:22.127Z,13.80
2022-10-20T19:26:57.541Z,13.90
2022-10-20T19:29:30.758Z,13.90
2022-10-20T19:32:00.207Z,13.90
2022-10-20T19:34:30.576Z,13.90
2022-10-20T19:36:58.499Z,14.00
2022-10-20T19:39:28.382Z,14.00
2022-10-20T19:41:57.721Z,14.00
2022-10-20T19:44:25.167Z,14.00
2022-10-20T19:46:53.951Z,13.90
2022-10-20T19:49:22.693Z,13.90
2022-10-20T19:51:49.837Z,13.90
2022-10-20T19:54:17.300Z,13.90
2022-10-20T19:56:44.692Z,14.00
2022-10-20T19:59:12.034Z,14.00
2022-10-20T20:01:39.308Z,14.00
2022-10-20T20:04:08.051Z,14.00
2022-10-20T20:06:35.506Z,14.00
2022-10-20T20:09:05.972Z,14.00
2022-10-20T20:11:34.559Z,14.00
2022-10-20T20:14:07.187Z,14.00
2022-10-20T20:16:34.408Z,14.00
2022-10-20T20:19:01.849Z,14.00
2022-10-20T20:21:30.346Z,13.90
2022-10-20T20:24:00.824Z,13.90
2022-10-20T20:26:29.308Z,13.90
2022-10-20T20:28:56.929Z,13.90
2022-10-20T20:31:24.829Z,13.90
2022-10-20T20:33:53.152Z,13.90
2022-10-20T20:36:20.498Z,13.90
2022-10-20T20:38:50.687Z,13.90
2022-10-20T20:41:20.848Z,14.00
2022-10-20T20:43:50.144Z,14.00
2022-10-20T20:46:22.414Z,14.00
2022-10-20T20:48:49.961Z,14.00
2022-10-20T20:51:20.451Z,14.00
2022-10-20T20:53:48.795Z,14.00
2022-10-20T20:56:19.589Z,13.90
2022-10-20T20:58:55.111Z,13.90
2022-10-20T21:01:26.998Z,13.90
2022-10-20T21:03:54.928Z,14.00
2022-10-20T21:06:33.280Z,14.10
2022-10-20T21:09:05.710Z,14.10
2022-10-20T21:11:32.785Z,14.10
2022-10-20T21:13:59.812Z,14.10
2022-10-20T21:16:29.511Z,14.10
2022-10-20T21:18:59.234Z,14.10
2022-10-20T21:21:28.342Z,14.10
2022-10-20T21:24:00.016Z,14.20
2022-10-20T21:26:30.282Z,14.20
2022-10-20T21:28:57.684Z,14.20
2022-10-20T21:31:30.718Z,14.20
2022-10-20T21:34:00.022Z,14.20
2022-10-20T21:36:40.290Z,14.30
2022-10-20T21:39:16.753Z,14.20
2022-10-20T21:42:00.277Z,14.20
2022-10-20T21:44:33.504Z,14.10
2022-10-20T21:47:06.802Z,14.20
2022-10-20T21:49:38.374Z,14.20
2022-10-20T21:52:08.550Z,14.20
2022-10-20T21:54:38.316Z,14.20
2022-10-20T21:57:06.757Z,14.20
2022-10-20T21:59:33.825Z,14.20
2022-10-20T22:02:04.076Z,14.20
2022-10-20T22:04:33.886Z,14.20
2022-10-20T22:07:06.605Z,14.20
2022-10-20T22:09:33.604Z,14.20
2022-10-20T22:12:04.451Z,14.30
2022-10-20T22:14:32.938Z,14.20
2022-10-20T22:17:06.238Z,14.20
2022-10-20T22:19:33.654Z,14.20
2022-10-20T22:22:06.372Z,14.20
2022-10-20T22:24:39.891Z,14.20
2022-10-20T22:27:15.628Z,14.30
2022-10-20T22:30:00.498Z,14.20
2022-10-20T22:32:27.527Z,14.20
2022-10-20T22:35:00.549Z,14.20
2022-10-20T22:37:30.500Z,14.30
2022-10-20T22:39:57.538Z,14.30
2022-10-20T22:42:33.759Z,14.30
2022-10-20T22:45:06.218Z,14.20
2022-10-20T22:47:33.120Z,14.20
2022-10-20T22:50:00.053Z,14.20
2022-10-20T22:52:26.974Z,14.20
2022-10-20T22:55:02.797Z,14.30
2022-10-20T22:57:32.772Z,14.30
2022-10-20T23:00:12.753Z,14.30
2022-10-20T23:02:42.565Z,14.30
2022-10-20T23:05:09.649Z,14.30
2022-10-20T23:07:37.147Z,14.30
2022-10-20T23:10:08.598Z,14.40
2022-10-20T23:12:36.095Z,14.40
2022-10-20T23:15:04.358Z,14.40
2022-10-20T23:17:34.742Z,14.40
2022-10-20T23:20:01.927Z,14.30
2022-10-20T23:22:28.998Z,14.30
2022-10-20T23:24:55.990Z,14.30
2022-10-20T23:27:23.152Z,14.30
2022-10-20T23:30:00.087Z,14.40
2022-10-20T23:32:29.910Z,14.40
2022-10-20T23:35:01.357Z,14.40
2022-10-20T23:37:28.361Z,14.40
2022-10-20T23:39:55.533Z,14.30
2022-10-20T23:42:28.559Z,14.30
2022-10-20T23:44:58.728Z,14.30
2022-10-20T23:47:28.790Z,14.30
2022-10-20T23:49:58.561Z,14.40
2022-10-20T23:52:32.477Z,14.40
2022-10-20T23:55:02.683Z,14.40
2022-10-20T23:57:32.579Z,14.50
2022-10-20T23:59:59.443Z,14.50
